Time;durP1;ratioP1;P1;durP2;ratioP2;P2;SDS_P1;SDS_P2;PMS_P1;PMS_P2;Temp;Humidity;BMP_temperature;BMP_pressure;BME280_temperature;BME280_humidity;BME280_pressure;Samples;Min_cycle;Max_cycle;Signal;HPM_P1;HPM_P2
2022/11/09 00:00:39;;;;;;;11.17;5.77;;;;;;;7.48;100.00;96034.69;5057672;28;20230;-71
2022/11/09 00:03:06;;;;;;;12.40;6.33;;;;;;;7.47;100.00;96032.22;5057492;28;20200;-71
2022/11/09 00:05:33;;;;;;;9.03;5.40;;;;;;;7.53;100.00;96023.72;5057869;28;20684;-71
2022/11/09 00:08:00;;;;;;;11.53;5.87;;;;;;;7.48;100.00;96024.19;5062254;28;20227;-71
2022/11/09 00:10:27;;;;;;;11.40;5.93;;;;;;;7.50;100.00;96027.47;5057706;28;20197;-71
2022/11/09 00:12:53;;;;;;;13.40;6.00;;;;;;;7.51;100.00;96029.13;5061023;28;20579;-71
2022/11/09 00:15:20;;;;;;;10.27;5.70;;;;;;;7.52;100.00;96016.81;5057332;28;20200;-71
2022/11/09 00:17:46;;;;;;;11.47;5.60;;;;;;;7.51;100.00;96029.13;5057591;28;20220;-71
2022/11/09 00:20:13;;;;;;;9.90;5.20;;;;;;;7.52;100.00;96027.31;5068318;28;20223;-71
2022/11/09 00:22:40;;;;;;;10.63;5.67;;;;;;;7.57;100.00;96031.06;5070571;28;20575;-71
2022/11/09 00:25:08;;;;;;;11.97;5.33;;;;;;;7.58;100.00;96029.28;5064831;28;20208;-71
2022/11/09 00:27:34;;;;;;;9.53;5.53;;;;;;;7.44;100.00;96025.50;5057875;28;20708;-71
2022/11/09 00:30:01;;;;;;;11.93;5.70;;;;;;;7.50;100.00;96024.84;5058102;28;20201;-71
2022/11/09 00:32:27;;;;;;;10.67;5.43;;;;;;;7.52;100.00;96028.16;5056443;28;20325;-71
2022/11/09 00:34:54;;;;;;;10.37;5.63;;;;;;;7.53;100.00;96027.16;5056735;28;20206;-71
2022/11/09 00:37:20;;;;;;;9.80;5.43;;;;;;;7.58;100.00;96034.53;5057255;28;20224;-71
2022/11/09 00:39:48;;;;;;;11.93;5.37;;;;;;;7.63;100.00;96040.91;5059431;28;20802;-71
2022/11/09 00:42:15;;;;;;;9.47;5.30;;;;;;;7.53;100.00;96035.00;5056273;28;20200;-70
2022/11/09 00:44:41;;;;;;;10.20;5.53;;;;;;;7.55;100.00;96046.16;5057115;28;20200;-70
2022/11/09 00:47:08;;;;;;;12.37;5.93;;;;;;;7.47;100.00;96040.94;5057836;28;20228;-71
2022/11/09 00:49:34;;;;;;;12.23;5.10;;;;;;;7.52;100.00;96043.03;5072464;28;20200;-71
2022/11/09 00:52:01;;;;;;;10.83;5.67;;;;;;;7.53;100.00;96045.50;5060610;28;20204;-71
2022/11/09 00:54:27;;;;;;;12.00;5.93;;;;;;;7.42;100.00;96045.84;5057689;28;20215;-71
2022/11/09 00:56:55;;;;;;;10.97;4.90;;;;;;;7.51;100.00;96044.03;5056925;28;20221;-71
2022/11/09 00:59:22;;;;;;;11.33;5.90;;;;;;;7.47;100.00;96038.31;5064030;28;20200;-71
2022/11/09 01:01:48;;;;;;;11.97;5.73;;;;;;;7.36;100.00;96038.63;5057228;28;21160;-71
2022/11/09 01:04:15;;;;;;;11.70;5.90;;;;;;;7.40;100.00;96039.13;5061596;28;20205;-71
2022/11/09 01:06:41;;;;;;;9.30;4.73;;;;;;;7.44;100.00;96030.75;5059310;28;20610;-71
2022/11/09 01:09:08;;;;;;;9.90;4.93;;;;;;;7.42;100.00;96037.97;5057407;28;20215;-71
2022/11/09 01:11:35;;;;;;;8.90;5.10;;;;;;;7.42;100.00;96037.97;5060968;28;20202;-71
2022/11/09 01:14:02;;;;;;;10.07;5.40;;;;;;;7.46;100.00;96038.47;5056371;28;20624;-71
2022/11/09 01:16:29;;;;;;;11.43;5.60;;;;;;;7.43;100.00;96037.00;5064735;28;20606;-71
2022/11/09 01:18:57;;;;;;;11.47;4.97;;;;;;;7.47;100.00;96040.09;5057286;28;20196;-71
2022/11/09 01:21:25;;;;;;;10.30;4.83;;;;;;;7.42;100.00;96031.88;5056559;28;21237;-71
2022/11/09 01:23:52;;;;;;;9.30;5.40;;;;;;;7.39;100.00;96025.16;5056250;28;20309;-71
2022/11/09 01:26:18;;;;;;;9.00;5.27;;;;;;;7.34;100.00;96030.09;5059385;28;20235;-71
2022/11/09 01:28:45;;;;;;;11.37;4.70;;;;;;;7.30;100.00;96023.53;5062207;28;20231;-71
2022/11/09 01:31:16;;;;;;;9.97;5.27;;;;;;;7.41;100.00;96027.66;5057156;28;20204;-71
2022/11/09 01:33:43;;;;;;;9.13;5.03;;;;;;;7.23;100.00;96026.13;5055920;28;20492;-71
2022/11/09 01:36:13;;;;;;;10.33;4.77;;;;;;;7.12;100.00;96023.84;5056752;28;20231;-71
2022/11/09 01:38:40;;;;;;;8.40;4.83;;;;;;;7.19;100.00;96025.63;5067176;28;20201;-71
2022/11/09 01:41:09;;;;;;;9.80;4.87;;;;;;;7.30;100.00;96028.75;5060554;28;20226;-71
2022/11/09 01:43:35;;;;;;;9.83;4.73;;;;;;;7.26;100.00;96026.66;5055831;28;20578;-71
2022/11/09 01:46:06;;;;;;;8.63;5.10;;;;;;;7.33;100.00;96011.91;5057322;28;20294;-71
2022/11/09 01:48:39;;;;;;;10.70;4.80;;;;;;;7.35;100.00;96016.00;5056630;28;20197;-71
2022/11/09 01:51:10;;;;;;;9.77;4.73;;;;;;;7.21;100.00;96023.69;5056448;28;20201;-71
2022/11/09 01:53:41;;;;;;;11.03;5.03;;;;;;;7.28;100.00;96022.06;5056314;28;20205;-71
2022/11/09 01:56:13;;;;;;;8.10;5.00;;;;;;;7.36;100.00;96016.84;5057184;28;20319;-71
2022/11/09 01:58:45;;;;;;;9.03;4.80;;;;;;;7.37;100.00;96023.72;5057566;28;20200;-71
2022/11/09 02:01:14;;;;;;;9.53;5.10;;;;;;;7.31;100.00;96026.97;5056272;28;20738;-71
2022/11/09 02:03:44;;;;;;;8.67;4.57;;;;;;;7.34;100.00;96030.09;5058346;28;20205;-71
2022/11/09 02:06:14;;;;;;;7.07;4.57;;;;;;;7.29;100.00;96018.44;5064163;28;20877;-71
2022/11/09 02:08:41;;;;;;;10.27;4.63;;;;;;;7.22;100.00;96014.00;5063658;28;20200;-71
2022/11/09 02:11:10;;;;;;;10.43;4.87;;;;;;;7.20;100.00;96010.75;5064210;28;20345;-71
2022/11/09 02:13:39;;;;;;;7.87;4.07;;;;;;;7.06;100.00;96001.72;5055712;28;20203;-71
2022/11/09 02:16:07;;;;;;;7.83;4.30;;;;;;;7.17;100.00;96011.91;5065051;28;20224;-71
2022/11/09 02:18:34;;;;;;;11.83;4.57;;;;;;;7.14;100.00;96001.75;5060561;28;20227;-71
2022/11/09 02:21:02;;;;;;;8.30;4.93;;;;;;;7.18;100.00;96015.31;5073487;28;20223;-71
2022/11/09 02:23:29;;;;;;;9.50;4.47;;;;;;;7.13;100.00;96004.50;5058848;28;20200;-71
2022/11/09 02:25:59;;;;;;;8.70;4.63;;;;;;;7.20;100.00;95997.66;5060101;28;20247;-71
2022/11/09 02:28:27;;;;;;;9.43;4.37;;;;;;;7.15;100.00;95997.31;5060017;28;20207;-71
2022/11/09 02:30:56;;;;;;;8.90;4.40;;;;;;;7.13;100.00;96000.09;5059491;28;20726;-71
2022/11/09 02:33:23;;;;;;;8.53;4.20;;;;;;;7.16;100.00;95997.16;5059099;28;20201;-71
2022/11/09 02:35:50;;;;;;;6.87;4.23;;;;;;;7.08;100.00;95993.72;5061093;28;20212;-71
2022/11/09 02:38:18;;;;;;;8.77;4.13;;;;;;;7.14;100.00;95990.44;5060675;28;20230;-71
2022/11/09 02:40:48;;;;;;;9.97;4.40;;;;;;;7.13;100.00;95988.78;5061486;28;20242;-71
2022/11/09 02:43:16;;;;;;;8.93;4.50;;;;;;;7.11;100.00;95990.75;5059224;28;20215;-71
2022/11/09 02:45:43;;;;;;;8.13;3.97;;;;;;;7.13;100.00;95994.03;5064113;28;20674;-71
2022/11/09 02:48:09;;;;;;;6.77;3.90;;;;;;;7.13;100.00;95999.25;5067600;28;20238;-71
2022/11/09 02:50:36;;;;;;;7.60;4.37;;;;;;;7.13;100.00;95991.41;5066348;28;20192;-71
2022/11/09 02:53:03;;;;;;;7.60;3.90;;;;;;;7.10;100.00;95989.13;5058657;28;20635;-71
2022/11/09 02:55:31;;;;;;;8.20;4.50;;;;;;;7.01;100.00;95985.66;5065049;28;20672;-71
2022/11/09 02:57:57;;;;;;;9.87;4.23;;;;;;;6.99;100.00;95987.63;5060107;28;20235;-71
2022/11/09 03:00:24;;;;;;;8.07;4.63;;;;;;;6.99;100.00;95982.41;5059151;28;20782;-71
2022/11/09 03:02:50;;;;;;;5.93;3.70;;;;;;;6.95;100.00;95982.88;5066006;28;20656;-71
2022/11/09 03:05:17;;;;;;;10.67;4.40;;;;;;;6.94;100.00;95987.28;5059392;28;20256;-71
2022/11/09 03:07:44;;;;;;;7.23;4.40;;;;;;;7.02;100.00;95989.13;5062103;28;20219;-71
2022/11/09 03:10:10;;;;;;;8.67;4.50;;;;;;;7.03;100.00;95985.53;5058883;28;20204;-71
2022/11/09 03:12:38;;;;;;;5.80;3.73;;;;;;;7.09;100.00;95977.00;5058753;28;20204;-71
2022/11/09 03:15:08;;;;;;;5.97;3.40;;;;;;;7.08;100.00;95970.13;5057386;28;20212;-71
2022/11/09 03:17:35;;;;;;;6.53;3.77;;;;;;;7.11;100.00;95968.00;5065906;28;20229;-71
2022/11/09 03:20:01;;;;;;;6.33;3.80;;;;;;;7.04;100.00;95964.41;5058563;28;20205;-71
2022/11/09 03:22:28;;;;;;;9.13;3.70;;;;;;;7.04;100.00;95974.88;5064288;28;20208;-71
2022/11/09 03:24:55;;;;;;;12.77;3.90;;;;;;;7.05;100.00;95986.16;5058701;28;20201;-71
2022/11/09 03:27:22;;;;;;;4.50;3.37;;;;;;;7.03;100.00;95990.75;5060299;28;20212;-70
2022/11/09 03:29:49;;;;;;;6.70;3.97;;;;;;;7.02;100.00;95989.13;5059768;28;20200;-70
2022/11/09 03:32:16;;;;;;;7.07;4.03;;;;;;;7.02;100.00;95996.97;5058321;28;20200;-70
2022/11/09 03:34:43;;;;;;;9.27;4.33;;;;;;;6.99;100.00;95992.88;5058030;28;20209;-70
2022/11/09 03:37:09;;;;;;;7.80;3.53;;;;;;;7.01;100.00;95984.84;5065389;28;20228;-70
2022/11/09 03:39:36;;;;;;;8.17;4.20;;;;;;;6.95;100.00;95985.47;5058958;28;20197;-70
2022/11/09 03:42:02;;;;;;;9.23;4.10;;;;;;;6.91;100.00;95987.63;5059115;28;20232;-70
2022/11/09 03:44:29;;;;;;;7.23;3.93;;;;;;;6.95;100.00;95975.00;5065653;28;20201;-70
2022/11/09 03:46:57;;;;;;;9.73;4.43;;;;;;;7.01;100.00;95985.66;5061029;28;20224;-70
2022/11/09 03:49:23;;;;;;;8.73;5.03;;;;;;;6.88;100.00;95980.06;5059196;28;20196;-70
2022/11/09 03:51:50;;;;;;;10.10;4.27;;;;;;;6.89;100.00;95986.97;5063663;28;20196;-70
2022/11/09 03:54:17;;;;;;;9.13;4.40;;;;;;;6.92;100.00;95999.72;5064259;28;20280;-70
2022/11/09 03:56:43;;;;;;;7.33;3.93;;;;;;;6.92;100.00;96001.53;5063928;28;20265;-70
2022/11/09 03:59:10;;;;;;;8.33;4.33;;;;;;;6.89;100.00;96014.97;5063242;28;20227;-70
2022/11/09 04:01:36;;;;;;;10.60;4.87;;;;;;;6.90;100.00;96014.78;5057476;28;20223;-70
2022/11/09 04:04:04;;;;;;;11.53;4.40;;;;;;;6.97;100.00;96001.88;5060658;28;20215;-70
2022/11/09 04:06:31;;;;;;;9.57;5.00;;;;;;;6.87;100.00;96011.66;5067814;28;20221;-70
2022/11/09 04:08:58;;;;;;;7.80;4.43;;;;;;;6.84;100.00;96012.00;5061328;28;20211;-70
2022/11/09 04:11:24;;;;;;;9.57;4.70;;;;;;;6.85;100.00;96017.06;5061630;28;20203;-70
2022/11/09 04:13:51;;;;;;;11.83;5.07;;;;;;;6.85;100.00;96003.97;5062943;28;20204;-70
2022/11/09 04:16:17;;;;;;;9.00;4.37;;;;;;;6.82;100.00;96008.69;5061151;28;20605;-71
2022/11/09 04:18:44;;;;;;;9.67;4.33;;;;;;;6.90;100.00;96016.59;5066158;28;20215;-71
2022/11/09 04:21:12;;;;;;;8.73;4.60;;;;;;;6.96;100.00;96016.78;5060552;28;20220;-71
2022/11/09 04:23:38;;;;;;;10.10;4.30;;;;;;;6.93;100.00;96030.19;5063239;28;20200;-71
2022/11/09 04:26:05;;;;;;;9.17;4.77;;;;;;;6.97;100.00;96023.63;5066348;28;20231;-71
2022/11/09 04:28:31;;;;;;;6.93;4.17;;;;;;;7.03;100.00;96027.44;5058320;28;20201;-71
2022/11/09 04:31:01;;;;;;;9.23;4.67;;;;;;;7.13;100.00;96023.69;5059245;28;20207;-71
2022/11/09 04:33:28;;;;;;;9.13;4.53;;;;;;;6.89;100.00;96028.84;5070098;28;20212;-71
2022/11/09 04:35:54;;;;;;;9.70;4.37;;;;;;;7.03;100.00;96025.63;5061876;28;20212;-71
2022/11/09 04:38:22;;;;;;;9.03;4.47;;;;;;;7.13;100.00;96014.97;5057220;28;20196;-71
2022/11/09 04:40:49;;;;;;;12.60;4.60;;;;;;;7.08;100.00;96010.25;5061041;28;20231;-71
2022/11/09 04:43:15;;;;;;;8.60;4.70;;;;;;;7.13;100.00;96014.97;5056978;28;20319;-71
2022/11/09 04:45:43;;;;;;;7.43;4.47;;;;;;;7.21;100.00;96012.41;5061156;28;20200;-71
2022/11/09 04:48:10;;;;;;;10.53;4.83;;;;;;;7.27;100.00;96012.56;5059471;28;20207;-71
2022/11/09 04:50:37;;;;;;;9.87;5.30;;;;;;;7.21;100.00;96010.59;5057528;28;20354;-71
2022/11/09 04:53:08;;;;;;;9.77;5.50;;;;;;;7.31;100.00;96013.88;5063085;28;20241;-71
2022/11/09 04:55:36;;;;;;;10.23;4.97;;;;;;;7.29;100.00;96016.66;5057128;28;20679;-71
2022/11/09 04:58:03;;;;;;;11.27;5.33;;;;;;;7.28;100.00;96016.84;5064089;28;20230;-71
2022/11/09 05:00:30;;;;;;;8.03;4.37;;;;;;;7.31;100.00;96032.22;5061413;28;20206;-71
2022/11/09 05:02:59;;;;;;;21.40;7.27;;;;;;;7.40;100.00;96045.16;5068239;28;20195;-71
2022/11/09 05:05:26;;;;;;;13.13;5.93;;;;;;;7.48;100.00;96058.28;5063401;28;20636;-71
2022/11/09 05:07:53;;;;;;;10.63;4.50;;;;;;;7.49;100.00;96064.34;5070778;28;20273;-71
2022/11/09 05:10:19;;;;;;;11.43;4.70;;;;;;;7.38;100.00;96075.97;5062708;28;20579;-71
2022/11/09 05:12:47;;;;;;;15.00;6.40;;;;;;;7.43;100.00;96070.22;5062375;28;20206;-71
2022/11/09 05:15:14;;;;;;;18.67;8.37;;;;;;;7.45;100.00;96071.72;5058824;28;20686;-71
2022/11/09 05:17:40;;;;;;;16.13;5.53;;;;;;;7.45;100.00;96069.09;5059505;28;20597;-71
2022/11/09 05:20:08;;;;;;;12.80;5.07;;;;;;;7.56;100.00;96074.03;5058398;28;20218;-71
2022/11/09 05:25:23;;;;;;;13.10;5.43;;;;;;;7.60;100.00;96067.47;5058447;28;20237;-70
2022/11/09 05:27:51;;;;;;;11.40;5.03;;;;;;;7.69;100.00;96063.88;5056241;28;20220;-70
2022/11/09 05:30:18;;;;;;;9.00;4.87;;;;;;;7.71;100.00;96067.13;5057678;28;20584;-71
2022/11/09 05:32:45;;;;;;;9.37;4.67;;;;;;;7.66;100.00;96066.84;5057619;28;20192;-71
2022/11/09 05:35:11;;;;;;;9.57;4.93;;;;;;;7.77;100.00;96076.97;5056774;28;20250;-71
2022/11/09 05:37:38;;;;;;;9.00;5.00;;;;;;;7.71;100.00;96082.88;5057275;28;20220;-71
2022/11/09 05:40:05;;;;;;;10.60;6.20;;;;;;;7.85;100.00;96097.16;5065279;28;20206;-71
2022/11/09 05:42:32;;;;;;;10.53;5.77;;;;;;;7.93;100.00;96104.03;5056267;28;20220;-71
2022/11/09 05:45:00;;;;;;;9.40;4.90;;;;;;;8.03;100.00;96102.06;5064228;28;20203;-71
2022/11/09 05:47:26;;;;;;;11.20;5.00;;;;;;;8.03;100.00;96103.84;5064945;28;20247;-71
2022/11/09 05:49:53;;;;;;;10.63;4.47;;;;;;;8.02;100.00;96104.88;5060269;28;20196;-71
2022/11/09 05:52:19;;;;;;;10.80;4.80;;;;;;;8.11;100.00;96103.88;5058344;28;20200;-71
2022/11/09 05:54:46;;;;;;;9.07;4.27;;;;;;;8.15;100.00;96113.91;5063372;28;20239;-71
2022/11/09 05:57:12;;;;;;;12.03;4.50;;;;;;;8.22;100.00;96119.31;5070917;28;20623;-71
2022/11/09 05:59:39;;;;;;;11.80;4.60;;;;;;;8.29;100.00;96112.44;5066302;28;20207;-71
2022/11/09 06:02:07;;;;;;;7.93;4.20;;;;;;;8.34;100.00;96097.81;5067701;28;20232;-71
2022/11/09 06:04:33;;;;;;;13.10;4.63;;;;;;;8.38;100.00;96098.31;5065097;28;20688;-71
2022/11/09 06:07:01;;;;;;;14.03;5.27;;;;;;;8.42;100.00;96096.97;5062638;28;20224;-71
2022/11/09 06:09:27;;;;;;;14.83;5.53;;;;;;;8.44;100.00;96100.22;5064760;28;20201;-71
2022/11/09 06:11:54;;;;;;;14.33;4.90;;;;;;;8.49;100.00;96109.28;5060276;28;20783;-71
2022/11/09 06:14:20;;;;;;;14.40;5.33;;;;;;;8.53;100.00;96106.13;5060896;28;20201;-71
2022/11/09 06:16:47;;;;;;;11.50;5.33;;;;;;;8.52;100.00;96115.00;5070640;28;20220;-71
2022/11/09 06:19:15;;;;;;;10.90;5.47;;;;;;;8.62;100.00;96105.13;5063784;28;20200;-71
2022/11/09 06:21:41;;;;;;;10.37;4.87;;;;;;;8.60;100.00;96112.38;5060461;28;20220;-71
2022/11/09 06:24:09;;;;;;;11.23;6.27;;;;;;;8.63;100.00;96111.19;5067251;28;20210;-71
2022/11/09 06:26:35;;;;;;;16.03;6.33;;;;;;;8.63;100.00;96106.75;5062491;28;20250;-71
2022/11/09 06:29:02;;;;;;;13.53;5.93;;;;;;;8.69;100.00;96095.59;5070736;28;20199;-71
2022/11/09 06:31:29;;;;;;;15.90;5.97;;;;;;;8.76;100.00;96096.53;5061652;28;20201;-71
2022/11/09 06:33:56;;;;;;;19.40;5.50;;;;;;;8.83;100.00;96108.00;5063216;28;20210;-71
2022/11/09 06:36:24;;;;;;;12.03;4.93;;;;;;;8.99;100.00;96099.28;5059775;28;20230;-71
2022/11/09 06:38:50;;;;;;;10.03;4.60;;;;;;;8.96;100.00;96102.22;5062006;28;20215;-71
2022/11/09 06:41:17;;;;;;;13.20;6.00;;;;;;;9.00;100.00;96093.84;5065932;28;20235;-71
2022/11/09 06:43:44;;;;;;;12.90;5.50;;;;;;;8.96;100.00;96091.69;5061047;28;20200;-71
2022/11/09 06:46:16;;;;;;;9.73;4.43;;;;;;;9.07;100.00;96091.34;5065711;28;20221;-71
2022/11/09 06:48:42;;;;;;;11.83;5.83;;;;;;;8.96;100.00;96091.69;5060209;28;20201;-71
2022/11/09 06:51:10;;;;;;;12.57;5.63;;;;;;;9.02;100.00;96097.09;5065750;28;20207;-71
2022/11/09 06:53:40;;;;;;;9.47;4.73;;;;;;;9.07;100.00;96107.09;5065470;28;20196;-70
2022/11/09 06:56:08;;;;;;;9.80;4.83;;;;;;;8.94;100.00;96094.50;5067212;28;20228;-70
2022/11/09 06:58:35;;;;;;;10.47;4.63;;;;;;;8.91;100.00;96092.22;5068471;28;20200;-70
2022/11/09 07:01:07;;;;;;;10.33;5.10;;;;;;;9.07;100.00;96094.78;5061834;28;20223;-70
2022/11/09 07:03:34;;;;;;;11.43;4.47;;;;;;;9.02;100.00;96097.09;5063287;28;20207;-70
2022/11/09 07:06:04;;;;;;;9.87;4.93;;;;;;;9.08;100.00;96100.88;5062928;28;20200;-70
2022/11/09 07:08:31;;;;;;;9.87;4.70;;;;;;;9.12;100.00;96098.53;5072286;28;20385;-70
2022/11/09 07:11:04;;;;;;;11.40;5.50;;;;;;;9.17;100.00;96095.41;5064569;28;20287;-70
2022/11/09 07:13:30;;;;;;;10.80;5.10;;;;;;;9.01;100.00;96098.06;5065591;28;20200;-70
2022/11/09 07:15:57;;;;;;;10.13;4.90;;;;;;;9.01;100.00;96105.97;5059129;28;20200;-70
2022/11/09 07:18:23;;;;;;;9.83;4.27;;;;;;;9.02;100.00;96104.16;5072434;28;20199;-70
2022/11/09 07:20:50;;;;;;;12.70;4.93;;;;;;;9.06;100.00;96095.75;5063364;28;20204;-69
2022/11/09 07:23:16;;;;;;;8.87;4.13;;;;;;;9.07;100.00;96115.81;5060588;28;20230;-70
2022/11/09 07:25:43;;;;;;;8.17;3.67;;;;;;;9.08;100.00;96113.00;5065076;28;20208;-70
2022/11/09 07:28:12;;;;;;;6.03;3.47;;;;;;;9.21;100.00;96120.34;5069489;28;20597;-70
2022/11/09 07:30:39;;;;;;;7.30;3.60;;;;;;;9.16;100.00;96115.63;5066273;28;20199;-69
2022/11/09 07:33:13;;;;;;;8.30;3.33;;;;;;;9.22;100.00;96137.75;5072662;28;20206;-70
2022/11/09 07:35:40;;;;;;;5.57;3.40;;;;;;;9.08;100.00;96134.03;5074724;28;20256;-70
2022/11/09 07:38:07;;;;;;;6.70;3.73;;;;;;;9.13;100.00;96120.38;5060548;28;20220;-69
2022/11/09 07:40:34;;;;;;;8.60;3.30;;;;;;;9.18;100.00;96128.59;5063625;28;20197;-69
2022/11/09 07:43:03;;;;;;;12.07;3.50;;;;;;;9.21;100.00;96130.84;5057521;28;20224;-69
2022/11/09 07:45:31;;;;;;;7.20;3.63;;;;;;;9.41;100.00;96140.78;5058363;28;20224;-69
2022/11/09 07:48:00;;;;;;;8.47;3.40;;;;;;;9.39;100.00;96148.00;5058432;28;20220;-69
2022/11/09 07:50:28;;;;;;;11.07;3.47;;;;;;;9.40;100.00;96138.34;5062013;28;20197;-70
2022/11/09 07:52:54;;;;;;;7.87;3.10;;;;;;;9.35;100.00;96143.28;5057498;28;20250;-69
2022/11/09 07:55:21;;;;;;;10.00;3.30;;;;;;;9.38;100.00;96135.03;5058596;28;20197;-69
2022/11/09 07:57:48;;;;;;;5.40;2.70;;;;;;;9.48;100.00;96146.19;5058327;28;20225;-69
2022/11/09 08:00:16;;;;;;;5.17;2.90;;;;;;;9.48;100.00;96146.19;5058071;28;20210;-69
2022/11/09 08:02:43;;;;;;;10.37;3.13;;;;;;;9.54;100.00;96151.56;5057690;28;20888;-70
2022/11/09 08:05:10;;;;;;;6.47;3.13;;;;;;;9.58;100.00;96146.78;5057907;28;20686;-69
2022/11/09 08:07:36;;;;;;;6.60;3.13;;;;;;;9.58;100.00;96144.16;5057022;28;20704;-70
2022/11/09 08:10:03;;;;;;;6.23;3.20;;;;;;;9.68;100.00;96135.84;5057659;28;20223;-70
2022/11/09 08:12:30;;;;;;;9.67;3.33;;;;;;;9.75;100.00;96143.91;5056970;28;20202;-70
2022/11/09 08:14:56;;;;;;;5.10;3.27;;;;;;;9.80;100.00;96147.63;5056437;28;20403;-70
2022/11/09 08:17:23;;;;;;;5.67;3.67;;;;;;;9.85;100.00;96147.09;5064028;28;20711;-70
2022/11/09 08:19:51;;;;;;;8.17;4.47;;;;;;;9.92;100.00;96148.06;5057416;28;20208;-70
2022/11/09 08:22:17;;;;;;;14.33;6.93;;;;;;;9.92;100.00;96146.22;5055854;28;20225;-70
2022/11/09 08:24:44;;;;;;;12.23;6.23;;;;;;;10.07;100.00;96148.94;5057539;28;20197;-69
2022/11/09 08:27:10;;;;;;;11.63;4.10;;;;;;;10.07;100.00;96147.16;5056417;28;20220;-69
2022/11/09 08:29:37;;;;;;;6.70;3.73;;;;;;;10.05;100.00;96143.03;5056689;28;20201;-69
2022/11/09 08:32:04;;;;;;;7.37;4.07;;;;;;;10.01;100.00;96139.94;5062719;28;20673;-69
2022/11/09 08:34:30;;;;;;;6.93;3.70;;;;;;;10.05;100.00;96135.97;5058152;28;20201;-69
2022/11/09 08:37:01;;;;;;;8.67;3.93;;;;;;;10.17;100.00;96144.25;5057037;28;20224;-69
2022/11/09 08:39:27;;;;;;;11.27;4.50;;;;;;;10.12;100.00;96150.06;5057233;28;20208;-69
2022/11/09 08:41:54;;;;;;;8.43;4.10;;;;;;;10.15;100.00;96146.28;5057587;28;20224;-69
2022/11/09 08:44:21;;;;;;;8.63;3.70;;;;;;;10.19;100.00;96152.81;5057246;28;20224;-69
2022/11/09 08:46:48;;;;;;;7.87;4.07;;;;;;;10.25;100.00;96155.56;5056461;28;20307;-69
2022/11/09 08:49:14;;;;;;;11.20;4.00;;;;;;;10.32;100.00;96160.94;5056999;28;20201;-69
2022/11/09 08:51:41;;;;;;;9.67;3.87;;;;;;;10.41;100.00;96165.94;5057633;28;20320;-69
2022/11/09 08:54:10;;;;;;;9.73;4.33;;;;;;;10.55;100.00;96166.00;5057013;28;20240;-69
2022/11/09 08:56:36;;;;;;;8.47;4.00;;;;;;;10.57;100.00;96163.19;5057006;28;20335;-69
2022/11/09 08:59:03;;;;;;;12.50;4.40;;;;;;;10.61;100.00;96164.47;5057146;28;20200;-69
2022/11/09 09:01:29;;;;;;;6.13;3.50;;;;;;;10.68;100.00;96175.91;5057131;28;20197;-69
2022/11/09 09:03:56;;;;;;;6.73;3.50;;;;;;;10.74;100.00;96170.75;5055824;28;20220;-69
2022/11/09 09:06:22;;;;;;;6.43;3.70;;;;;;;10.89;100.00;96173.41;5065183;28;20225;-69
2022/11/09 09:08:49;;;;;;;8.33;4.00;;;;;;;10.96;100.00;96172.53;5056919;28;20660;-69
2022/11/09 09:11:17;;;;;;;8.30;4.10;;;;;;;11.09;100.00;96178.78;5056351;28;20218;-69
2022/11/09 09:13:44;;;;;;;7.97;4.40;;;;;;;11.17;100.00;96176.06;5055109;28;20283;-69
2022/11/09 09:16:12;;;;;;;9.37;4.07;;;;;;;11.21;100.00;96179.97;5055506;28;20225;-70
2022/11/09 09:18:38;;;;;;;6.70;3.90;;;;;;;11.16;100.00;96177.06;5055805;28;20196;-69
2022/11/09 09:21:06;;;;;;;6.57;3.37;;;;;;;11.25;100.00;96178.63;5056529;28;20207;-69
2022/11/09 09:23:33;;;;;;;5.60;3.30;;;;;;;11.30;100.00;96173.63;5055803;28;20556;-69
2022/11/09 09:26:00;;;;;;;11.67;3.80;;;;;;;11.37;100.00;96166.59;5056910;28;20204;-69
2022/11/09 09:28:28;;;;;;;7.07;2.97;;;;;;;11.47;100.00;96161.03;5060620;28;20680;-69
2022/11/09 09:30:57;;;;;;;7.23;4.00;;;;;;;11.55;100.00;96172.34;5060475;28;20207;-69
2022/11/09 09:33:23;;;;;;;8.20;4.23;;;;;;;11.59;100.00;96168.31;5062540;28;20743;-69
2022/11/09 09:35:50;;;;;;;7.53;4.10;;;;;;;11.51;100.00;96171.06;5070326;28;20215;-69
2022/11/09 09:38:17;;;;;;;9.67;4.10;;;;;;;11.69;100.00;96160.94;5061969;28;20692;-69
2022/11/09 09:40:56;;;;;;;6.17;3.10;;;;;;;11.82;100.00;96176.94;5060293;28;20303;-69
2022/11/09 09:43:30;;;;;;;6.70;4.10;;;;;;;11.97;100.00;96175.06;5059049;28;20216;-69
2022/11/09 09:45:59;;;;;;;8.10;3.67;;;;;;;11.91;100.00;96173.97;5061032;28;20215;-69
2022/11/09 09:48:35;;;;;;;9.03;3.93;;;;;;;12.04;100.00;96183.88;5059753;28;20201;-69
2022/11/09 09:51:09;;;;;;;7.13;4.37;;;;;;;12.00;100.00;96190.53;5059878;28;20680;-69
2022/11/09 09:53:45;;;;;;;12.27;4.00;;;;;;;12.13;100.00;96182.75;5059960;28;20202;-69
2022/11/09 09:56:16;;;;;;;6.07;3.27;;;;;;;12.23;100.00;96184.06;5060719;28;20220;-69
2022/11/09 09:58:47;;;;;;;8.20;4.07;;;;;;;12.28;100.00;96173.75;5060397;28;20193;-69
2022/11/09 10:01:18;;;;;;;7.60;3.70;;;;;;;12.42;100.00;96172.88;5060262;28;20223;-69
2022/11/09 10:03:45;;;;;;;7.03;3.17;;;;;;;12.40;100.00;96174.91;5059334;28;20226;-69
2022/11/09 10:06:30;;;;;;;5.83;3.10;;;;;;;12.49;100.00;96184.34;5067490;28;20220;-69
2022/11/09 10:09:19;;;;;;;6.30;3.33;;;;;;;12.62;100.00;96179.97;5059998;28;20215;-69
2022/11/09 10:11:56;;;;;;;5.10;3.10;;;;;;;12.61;100.00;96177.53;5060265;28;20226;-69
2022/11/09 10:14:43;;;;;;;7.37;3.63;;;;;;;12.70;100.00;96169.25;5059405;28;20211;-69
2022/11/09 10:17:20;;;;;;;6.53;3.00;;;;;;;12.80;100.00;96162.66;5061075;28;20231;-69
2022/11/09 10:19:58;;;;;;;8.33;4.47;;;;;;;12.91;100.00;96175.34;5064920;28;20210;-69
2022/11/09 10:22:34;;;;;;;17.07;6.57;;;;;;;12.88;100.00;96165.16;5058999;28;20715;-69
2022/11/09 10:25:06;;;;;;;7.63;4.33;;;;;;;12.94;100.00;96164.38;5068340;28;20204;-69
2022/11/09 10:27:35;;;;;;;10.63;4.63;;;;;;;12.97;100.00;96155.25;5059044;28;20220;-69
2022/11/09 10:30:11;;;;;;;5.35;2.75;;;;;;;13.00;100.00;96153.03;5059620;28;20204;-69
2022/11/09 10:32:38;;;;;;;8.60;4.23;;;;;;;13.10;100.00;96152.72;5059284;28;20318;-69
2022/11/09 10:35:16;;;;;;;8.50;3.50;;;;;;;13.19;100.00;96147.06;5064112;28;20225;-69
2022/11/09 10:37:45;;;;;;;10.77;5.43;;;;;;;13.18;100.00;96153.34;5061884;28;20242;-69
2022/11/09 10:40:17;;;;;;;8.63;4.13;;;;;;;13.19;100.00;96148.91;5058499;28;20692;-69
2022/11/09 10:42:47;;;;;;;6.33;3.17;;;;;;;13.29;100.00;96149.34;5062664;28;20268;-69
2022/11/09 10:45:29;;;;;;;5.87;2.90;;;;;;;13.29;100.00;96138.75;5059082;28;20205;-69
2022/11/09 10:47:56;;;;;;;5.43;3.35;;;;;;;13.10;100.00;96136.84;5058315;28;20232;-69
2022/11/09 10:50:29;;;;;;;5.53;3.27;;;;;;;13.30;100.00;96137.75;5058482;28;20565;-69
2022/11/09 10:53:09;;;;;;;3.63;2.05;;;;;;;13.38;100.00;96120.69;5059169;28;20197;-69
2022/11/09 10:55:36;;;;;;;8.17;2.77;;;;;;;13.25;100.00;96121.63;5060057;28;20201;-69
2022/11/09 10:58:20;;;;;;;9.70;2.40;;;;;;;13.39;100.00;96124.97;5067145;28;21077;-69
2022/11/09 11:00:59;;;;;;;5.73;3.10;;;;;;;13.40;100.00;96113.38;5059049;28;20211;-69
2022/11/09 11:03:26;;;;;;;6.70;3.07;;;;;;;13.40;100.00;96108.09;5065933;28;20523;-69
2022/11/09 11:05:58;;;;;;;4.87;2.80;;;;;;;13.66;100.00;96112.66;5073216;28;20200;-70
2022/11/09 11:08:35;;;;;;;5.17;2.80;;;;;;;13.69;100.00;96109.63;5068581;28;20812;-69
2022/11/09 11:11:21;;;;;;;6.97;2.50;;;;;;;13.91;100.00;96106.59;5072509;28;20210;-70
2022/11/09 11:13:49;;;;;;;4.47;2.42;;;;;;;13.77;100.00;96104.13;5063569;28;20192;-69
2022/11/09 11:16:27;;;;;;;4.72;3.03;;;;;;;13.80;100.00;96107.22;5065452;28;20234;-70
2022/11/09 11:18:54;;;;;;;9.20;3.20;;;;;;;13.63;100.00;96111.25;5059520;28;20201;-69
2022/11/09 11:21:22;;;;;;;5.25;3.00;;;;;;;13.83;100.00;96104.16;5063952;28;20962;-69
2022/11/09 11:24:11;;;;;;;3.30;1.97;;;;;;;13.99;100.00;96101.94;5064163;28;20239;-70
2022/11/09 11:26:42;;;;;;;3.78;2.45;;;;;;;14.03;100.00;96097.06;5063608;28;21012;-69
2022/11/09 11:29:34;;;;;;;4.47;2.40;;;;;;;14.18;100.00;96092.44;5063106;28;20208;-69
2022/11/09 11:32:03;;;;;;;5.40;1.98;;;;;;;14.16;100.00;96089.97;5063075;28;20218;-70
2022/11/09 11:34:30;;;;;;;2.03;1.67;;;;;;;14.22;100.00;96089.19;5062425;28;20201;-69
2022/11/09 11:37:09;;;;;;;5.13;2.10;;;;;;;14.26;100.00;96092.25;5062584;28;20239;-70